createdAt,value
2019-03-30T00:02:59.137Z,4.00
2019-03-30T00:07:55.000Z,4.00
2019-03-30T00:12:46.489Z,3.90
2019-03-30T00:17:37.895Z,3.80
2019-03-30T00:22:31.407Z,3.70
2019-03-30T00:27:22.827Z,3.70
2019-03-30T00:32:16.425Z,3.60
2019-03-30T00:37:07.882Z,3.60
2019-03-30T00:41:59.301Z,3.60
2019-03-30T00:46:50.641Z,3.50
2019-03-30T00:51:42.087Z,3.40
2019-03-30T00:56:33.378Z,3.50
2019-03-30T01:01:27.092Z,3.40
2019-03-30T01:06:20.757Z,3.30
2019-03-30T01:11:12.267Z,3.20
2019-03-30T01:16:10.437Z,3.20
2019-03-30T01:21:01.921Z,3.20
2019-03-30T01:25:55.494Z,3.20
2019-03-30T01:35:38.326Z,3.10
2019-03-30T01:40:29.713Z,3.00
2019-03-30T01:45:23.269Z,2.90
2019-03-30T01:50:18.759Z,2.90
2019-03-30T01:55:06.190Z,2.90
2019-03-30T01:59:59.829Z,2.80
2019-03-30T02:04:51.299Z,2.80
2019-03-30T02:09:44.892Z,2.70
2019-03-30T02:14:36.365Z,2.50
2019-03-30T02:19:27.766Z,2.70
2019-03-30T02:24:19.132Z,2.60
2019-03-30T02:29:10.490Z,2.60
2019-03-30T02:34:01.886Z,2.60
2019-03-30T02:38:53.296Z,2.50
2019-03-30T02:43:44.595Z,2.50
2019-03-30T02:48:36.132Z,2.50
2019-03-30T02:53:27.506Z,2.50
2019-03-30T02:58:18.826Z,2.50
2019-03-30T03:03:10.286Z,2.50
2019-03-30T03:08:01.667Z,2.40
2019-03-30T03:12:53.054Z,2.40
2019-03-30T03:17:44.376Z,2.40
2019-03-30T03:22:38.202Z,2.30
2019-03-30T03:27:29.499Z,2.30
2019-03-30T03:32:21.014Z,2.20
2019-03-30T03:37:12.227Z,2.20
2019-03-30T03:42:03.661Z,2.20
2019-03-30T03:46:55.018Z,2.20
2019-03-30T03:51:46.470Z,2.10
2019-03-30T03:56:37.771Z,2.10
2019-03-30T04:01:29.203Z,2.10
2019-03-30T04:06:20.626Z,2.10
2019-03-30T04:11:12.050Z,2.00
2019-03-30T04:16:03.437Z,2.00
2019-03-30T04:20:54.768Z,2.00
2019-03-30T04:25:46.170Z,2.00
2019-03-30T04:30:37.518Z,2.00
2019-03-30T04:35:28.982Z,1.90
2019-03-30T04:40:20.353Z,1.90
2019-03-30T04:45:11.762Z,1.90
2019-03-30T04:50:03.166Z,1.90
2019-03-30T04:54:54.544Z,1.80
2019-03-30T04:59:45.864Z,1.90
2019-03-30T05:04:37.265Z,1.80
2019-03-30T05:09:28.664Z,1.80
2019-03-30T05:14:20.189Z,1.70
2019-03-30T05:19:11.467Z,1.70
2019-03-30T05:24:03.009Z,1.70
2019-03-30T05:28:54.260Z,1.80
2019-03-30T05:33:45.702Z,1.80
2019-03-30T05:38:37.031Z,2.00
2019-03-30T05:43:28.493Z,1.90
2019-03-30T05:48:19.820Z,2.30
2019-03-30T05:58:02.566Z,2.60
2019-03-30T06:02:53.944Z,2.80
2019-03-30T06:07:45.329Z,3.00
2019-03-30T06:12:36.812Z,3.10
2019-03-30T06:17:28.153Z,3.40
2019-03-30T06:22:19.593Z,3.60
2019-03-30T06:27:10.968Z,3.80
2019-03-30T06:32:02.437Z,4.10
2019-03-30T06:36:53.785Z,4.30
2019-03-30T06:41:45.121Z,4.50
2019-03-30T06:46:40.264Z,4.80
2019-03-30T06:51:28.177Z,5.00
2019-03-30T06:56:19.521Z,5.30
2019-03-30T07:01:10.953Z,5.50
2019-03-30T07:06:02.336Z,5.80
2019-03-30T07:10:53.818Z,6.10
2019-03-30T07:15:45.098Z,6.40
2019-03-30T07:20:36.462Z,6.70
2019-03-30T07:25:27.874Z,7.00
2019-03-30T07:30:19.483Z,7.40
2019-03-30T07:35:10.719Z,7.70
2019-03-30T07:40:02.089Z,8.20
2019-03-30T07:44:53.495Z,8.70
2019-03-30T07:49:44.883Z,9.20
2019-03-30T07:54:36.269Z,9.60
2019-03-30T07:59:27.644Z,10.10
2019-03-30T08:04:19.106Z,10.60
2019-03-30T08:09:10.452Z,11.00
2019-03-30T08:14:01.881Z,11.40
2019-03-30T08:18:53.227Z,11.80
2019-03-30T08:23:44.630Z,12.10
2019-03-30T08:28:35.985Z,12.30
2019-03-30T08:33:27.394Z,12.60
2019-03-30T08:38:18.746Z,13.00
2019-03-30T08:43:10.132Z,13.30
2019-03-30T08:48:01.534Z,13.50
2019-03-30T08:52:52.912Z,13.60
2019-03-30T08:57:44.368Z,13.70
2019-03-30T09:02:35.702Z,13.80
2019-03-30T09:07:27.069Z,14.00
2019-03-30T09:12:18.481Z,14.30
2019-03-30T09:17:09.845Z,14.70
2019-03-30T09:22:01.261Z,14.90
2019-03-30T09:26:52.594Z,15.00
2019-03-30T09:31:43.928Z,15.10
2019-03-30T09:36:35.818Z,15.30
2019-03-30T09:41:26.797Z,15.50
2019-03-30T09:46:18.117Z,15.60
2019-03-30T09:51:09.463Z,15.70
2019-03-30T09:56:00.864Z,15.80
2019-03-30T10:00:52.242Z,15.80
2019-03-30T10:05:43.626Z,15.90
2019-03-30T10:10:35.009Z,16.20
2019-03-30T10:15:26.459Z,16.30
2019-03-30T10:20:17.863Z,16.30
2019-03-30T10:25:09.267Z,16.50
2019-03-30T10:30:00.860Z,16.60
2019-03-30T10:34:52.033Z,16.40
2019-03-30T10:39:43.410Z,16.80
2019-03-30T10:44:34.744Z,16.90
2019-03-30T10:49:26.160Z,17.20
2019-03-30T10:54:17.607Z,17.10
2019-03-30T10:59:08.986Z,17.40
2019-03-30T11:04:00.327Z,17.30
2019-03-30T11:08:51.655Z,17.40
2019-03-30T11:13:43.075Z,17.50
2019-03-30T11:18:34.400Z,17.60
2019-03-30T11:23:25.857Z,17.70
2019-03-30T11:28:17.257Z,17.70
2019-03-30T11:33:08.661Z,17.80
2019-03-30T11:37:59.992Z,18.00
2019-03-30T11:42:51.437Z,17.80
2019-03-30T11:47:42.772Z,18.00
2019-03-30T11:52:34.250Z,18.00
2019-03-30T11:57:25.563Z,18.10
2019-03-30T12:02:28.924Z,18.20
2019-03-30T12:07:08.324Z,18.10
2019-03-30T12:11:59.735Z,17.90
2019-03-30T12:16:51.231Z,18.00
2019-03-30T12:21:42.465Z,18.00
2019-03-30T12:26:33.881Z,18.20
2019-03-30T12:31:25.355Z,18.30
2019-03-30T12:36:16.671Z,18.30
2019-03-30T12:41:08.087Z,18.50
2019-03-30T12:45:59.453Z,18.50
2019-03-30T12:50:50.805Z,18.50
2019-03-30T12:55:50.272Z,18.60
2019-03-30T13:00:33.643Z,18.60
2019-03-30T13:05:24.997Z,18.50
2019-03-30T13:10:16.411Z,18.50
2019-03-30T13:15:07.912Z,18.50
2019-03-30T13:19:59.161Z,18.50
2019-03-30T13:24:50.638Z,18.50
2019-03-30T13:29:41.931Z,18.60
2019-03-30T13:34:33.434Z,18.40
2019-03-30T13:39:24.787Z,18.30
2019-03-30T13:44:16.164Z,18.40
2019-03-30T13:49:07.464Z,18.60
2019-03-30T13:53:58.895Z,18.60
2019-03-30T13:58:50.328Z,18.60
2019-03-30T14:03:41.699Z,18.70
2019-03-30T14:08:33.093Z,18.70
2019-03-30T14:13:24.535Z,18.70
2019-03-30T14:18:15.863Z,18.70
2019-03-30T14:23:07.310Z,18.70
2019-03-30T14:27:58.687Z,18.90
2019-03-30T14:32:50.076Z,18.90
2019-03-30T14:37:41.774Z,18.80
2019-03-30T14:42:32.856Z,18.80
2019-03-30T14:47:24.222Z,18.80
2019-03-30T14:52:16.059Z,18.90
2019-03-30T14:57:06.993Z,18.90
2019-03-30T15:01:58.604Z,18.80
2019-03-30T15:06:49.817Z,18.90
2019-03-30T15:11:41.440Z,18.80
2019-03-30T15:16:32.864Z,18.80
2019-03-30T15:21:23.952Z,18.70
2019-03-30T15:26:15.347Z,18.80
2019-03-30T15:31:06.705Z,18.80
2019-03-30T15:35:58.041Z,18.80
2019-03-30T15:40:49.465Z,18.80
2019-03-30T15:45:40.863Z,18.70
2019-03-30T15:50:32.312Z,18.60
2019-03-30T15:55:23.597Z,18.60
2019-03-30T16:00:15.477Z,18.50
2019-03-30T16:05:06.456Z,18.60
2019-03-30T16:09:58.066Z,18.60
2019-03-30T16:14:49.399Z,18.60
2019-03-30T16:19:40.965Z,18.50
2019-03-30T16:24:32.157Z,18.40
2019-03-30T16:29:23.322Z,18.40
2019-03-30T16:34:14.923Z,18.30
2019-03-30T16:39:06.198Z,18.20
2019-03-30T16:43:57.501Z,18.10
2019-03-30T16:48:48.921Z,18.00
2019-03-30T16:53:40.354Z,17.90
2019-03-30T16:58:31.772Z,17.80
2019-03-30T17:03:23.067Z,17.60
2019-03-30T17:08:14.513Z,17.50
2019-03-30T17:13:05.850Z,17.40
2019-03-30T17:17:57.268Z,17.30
2019-03-30T17:22:48.651Z,17.10
2019-03-30T17:27:40.471Z,17.00
2019-03-30T17:32:31.516Z,16.80
2019-03-30T17:37:22.867Z,16.60
2019-03-30T17:42:14.237Z,16.30
2019-03-30T17:47:05.619Z,16.10
2019-03-30T17:51:57.055Z,15.70
2019-03-30T17:56:48.433Z,15.30
2019-03-30T18:01:46.871Z,14.70
2019-03-30T18:06:38.244Z,14.30
2019-03-30T18:11:29.671Z,13.90
2019-03-30T18:16:23.210Z,13.40
2019-03-30T18:21:12.409Z,13.10
2019-03-30T18:26:03.835Z,12.80
2019-03-30T18:30:57.409Z,12.30
2019-03-30T18:35:48.885Z,12.30
2019-03-30T18:40:40.254Z,12.10
2019-03-30T18:45:31.638Z,12.00
2019-03-30T18:50:22.998Z,11.70
2019-03-30T18:55:14.441Z,11.40
2019-03-30T19:00:05.854Z,11.20
2019-03-30T19:04:57.270Z,11.00
2019-03-30T19:09:48.745Z,10.80
2019-03-30T19:14:40.073Z,10.60
2019-03-30T19:19:31.512Z,10.40
2019-03-30T19:24:22.899Z,10.30
2019-03-30T19:29:14.188Z,10.10
2019-03-30T19:34:07.878Z,9.80
2019-03-30T19:38:59.345Z,9.80
2019-03-30T19:43:50.805Z,9.60
2019-03-30T19:48:42.138Z,9.40
2019-03-30T19:53:36.332Z,9.20
2019-03-30T19:58:27.805Z,9.20
2019-03-30T20:03:19.183Z,8.90
2019-03-30T20:08:13.305Z,8.90
2019-03-30T20:13:02.000Z,8.70
2019-03-30T20:17:53.509Z,8.50
2019-03-30T20:22:44.801Z,8.40
2019-03-30T20:27:36.279Z,8.20
2019-03-30T20:32:27.630Z,8.10
2019-03-30T20:37:19.018Z,7.90
2019-03-30T20:42:10.418Z,7.80
2019-03-30T20:47:01.786Z,7.70
2019-03-30T20:51:53.190Z,7.60
2019-03-30T20:56:44.597Z,7.50
2019-03-30T21:01:39.098Z,7.40
2019-03-30T21:06:27.392Z,7.30
2019-03-30T21:11:18.731Z,7.00
2019-03-30T21:16:10.271Z,7.20
2019-03-30T21:21:01.452Z,7.10
2019-03-30T21:25:52.953Z,6.90
2019-03-30T21:30:44.296Z,6.80
2019-03-30T21:35:35.740Z,6.60
2019-03-30T21:40:27.122Z,6.60
2019-03-30T21:45:18.566Z,6.60
2019-03-30T21:50:09.802Z,6.50
2019-03-30T21:55:01.341Z,6.30
2019-03-30T21:59:52.604Z,6.20
2019-03-30T22:04:44.068Z,6.10
2019-03-30T22:09:35.419Z,5.90
2019-03-30T22:14:26.798Z,5.80
2019-03-30T22:19:18.131Z,5.70
2019-03-30T22:24:09.540Z,5.70
2019-03-30T22:29:00.909Z,5.70
2019-03-30T22:33:52.383Z,5.60
2019-03-30T22:38:43.761Z,5.50
2019-03-30T22:43:35.198Z,5.50
2019-03-30T22:48:26.487Z,5.50
2019-03-30T22:53:17.909Z,5.40
2019-03-30T22:58:09.269Z,5.40
2019-03-30T23:03:00.781Z,5.30
2019-03-30T23:07:52.081Z,5.20
2019-03-30T23:12:43.500Z,5.10
2019-03-30T23:17:34.832Z,5.00
2019-03-30T23:22:26.227Z,4.90
2019-03-30T23:27:17.648Z,4.80
2019-03-30T23:32:09.040Z,4.80
2019-03-30T23:41:51.745Z,4.70
2019-03-30T23:46:43.210Z,4.50
2019-03-30T23:51:34.510Z,4.50
2019-03-30T23:56:26.015Z,4.40
